Time;durP1;ratioP1;P1;durP2;ratioP2;P2;SDS_P1;SDS_P2;PMS_P1;PMS_P2;Temp;Humidity;BMP_temperature;BMP_pressure;BME280_temperature;BME280_humidity;BME280_pressure;Samples;Min_cycle;Max_cycle;Signal;HPM_P1;HPM_P2
2022/08/26 00:02:01;;;;;;;0.50;0.50;;;23.40;99.90;;;;;;5095968;28;20223;-80
2022/08/26 00:04:26;;;;;;;0.90;0.90;;;23.40;99.90;;;;;;5090661;28;20188;-80
2022/08/26 00:06:53;;;;;;;0.67;0.67;;;23.30;99.90;;;;;;5104533;28;20187;-80
2022/08/26 00:09:20;;;;;;;0.70;0.70;;;23.20;99.90;;;;;;5093610;28;20218;-80
2022/08/26 00:11:46;;;;;;;1.17;0.90;;;23.20;99.90;;;;;;5088371;28;20192;-81
2022/08/26 00:14:12;;;;;;;1.13;0.90;;;23.10;99.90;;;;;;5098697;28;20702;-80
2022/08/26 00:16:38;;;;;;;0.80;0.80;;;23.20;99.90;;;;;;5094041;28;20553;-79
2022/08/26 00:19:03;;;;;;;0.83;0.83;;;23.30;99.90;;;;;;5089817;28;20204;-80
2022/08/26 00:21:29;;;;;;;0.63;0.50;;;23.40;99.90;;;;;;5090096;28;20206;-80
2022/08/26 00:23:55;;;;;;;0.60;0.60;;;23.40;99.90;;;;;;5089098;28;20191;-80
2022/08/26 00:26:20;;;;;;;0.90;0.90;;;23.20;99.90;;;;;;5096809;28;20210;-80
2022/08/26 00:28:48;;;;;;;0.67;0.67;;;23.00;99.90;;;;;;5090538;28;20618;-80
2022/08/26 00:31:14;;;;;;;0.80;0.70;;;23.00;99.90;;;;;;5084763;28;20192;-80
2022/08/26 00:33:40;;;;;;;0.90;0.90;;;23.00;99.90;;;;;;5108678;28;20214;-80
2022/08/26 00:36:07;;;;;;;0.63;0.63;;;23.10;99.90;;;;;;5093531;28;20681;-80
2022/08/26 00:38:35;;;;;;;1.47;1.00;;;23.10;99.90;;;;;;5102767;28;20196;-80
2022/08/26 00:41:01;;;;;;;0.60;0.60;;;23.20;99.90;;;;;;5086813;28;20239;-80
2022/08/26 00:43:31;;;;;;;1.20;0.80;;;23.20;99.90;;;;;;5082732;28;20192;-80
2022/08/26 00:46:06;;;;;;;0.57;0.57;;;23.30;99.90;;;;;;5087495;28;20212;-80
2022/08/26 00:48:32;;;;;;;0.50;0.50;;;23.40;99.90;;;;;;5090532;28;22055;-80
2022/08/26 00:51:10;;;;;;;0.37;0.37;;;23.30;99.90;;;;;;5084093;28;20543;-80
2022/08/26 00:53:40;;;;;;;0.50;0.50;;;23.20;99.90;;;;;;5082796;28;20203;-80
2022/08/26 00:56:15;;;;;;;0.67;0.47;;;23.20;99.90;;;;;;5089199;28;20222;-80
2022/08/26 00:58:44;;;;;;;0.57;0.57;;;23.20;99.90;;;;;;5078381;28;20203;-80
2022/08/26 01:01:10;;;;;;;0.57;0.57;;;23.00;99.90;;;;;;5086318;28;20205;-80
2022/08/26 01:03:37;;;;;;;1.40;0.87;;;23.00;99.90;;;;;;5093456;28;20662;-81
2022/08/26 01:06:05;;;;;;;1.50;1.33;;;23.00;99.90;;;;;;5078368;28;20180;-80
2022/08/26 01:08:31;;;;;;;0.83;0.80;;;23.00;99.90;;;;;;5085039;28;20216;-81
2022/08/26 01:10:59;;;;;;;0.50;0.40;;;23.00;99.90;;;;;;5080485;28;20207;-80
2022/08/26 01:13:24;;;;;;;0.43;0.43;;;23.00;99.90;;;;;;5087693;28;20207;-80
2022/08/26 01:15:53;;;;;;;0.40;0.40;;;23.00;99.90;;;;;;5077857;28;20548;-80
2022/08/26 01:18:19;;;;;;;0.43;0.43;;;23.00;99.90;;;;;;5079934;28;20216;-80
2022/08/26 01:21:03;;;;;;;0.40;0.40;;;23.10;99.90;;;;;;5082140;28;20177;-81
2022/08/26 01:23:34;;;;;;;0.33;0.33;;;23.20;99.90;;;;;;5093021;28;20290;-80
2022/08/26 01:26:05;;;;;;;0.77;0.50;;;23.20;99.90;;;;;;5081462;28;20701;-81
2022/08/26 01:28:32;;;;;;;0.73;0.73;;;23.30;99.90;;;;;;5094144;28;20205;-80
2022/08/26 01:31:00;;;;;;;4.30;0.90;;;23.30;99.90;;;;;;5092812;28;20184;-80
2022/08/26 01:33:30;;;;;;;0.57;0.57;;;23.30;99.90;;;;;;5117762;28;20661;-80
2022/08/26 01:35:57;;;;;;;0.47;0.40;;;23.30;99.90;;;;;;5095047;28;20547;-80
2022/08/26 01:38:22;;;;;;;2.63;0.63;;;23.40;99.90;;;;;;5108506;27;20282;-80
2022/08/26 01:40:48;;;;;;;0.63;0.63;;;23.20;99.90;;;;;;5092312;28;20237;-80
2022/08/26 01:43:19;;;;;;;0.40;0.40;;;23.10;99.90;;;;;;5095427;28;20182;-81
2022/08/26 01:45:45;;;;;;;0.53;0.53;;;23.10;99.90;;;;;;5085937;28;20177;-80
2022/08/26 01:48:16;;;;;;;1.57;1.03;;;23.00;99.90;;;;;;5096467;28;20204;-80
2022/08/26 01:50:43;;;;;;;0.50;0.50;;;23.00;99.90;;;;;;5107205;27;20188;-80
2022/08/26 01:53:11;;;;;;;0.80;0.80;;;23.00;99.90;;;;;;5096356;28;20292;-80
2022/08/26 01:55:40;;;;;;;0.43;0.43;;;23.00;99.90;;;;;;5101540;28;20183;-80
2022/08/26 01:58:12;;;;;;;0.50;0.50;;;23.10;99.90;;;;;;5105512;28;20222;-80
2022/08/26 02:00:38;;;;;;;1.03;0.80;;;23.20;99.90;;;;;;5090699;28;20185;-80
2022/08/26 02:03:20;;;;;;;0.40;0.40;;;23.20;99.90;;;;;;5091638;28;20233;-80
2022/08/26 02:06:02;;;;;;;0.70;0.70;;;23.10;99.90;;;;;;5085126;28;20681;-80
2022/08/26 02:08:49;;;;;;;1.20;0.97;;;23.00;99.90;;;;;;5093796;28;20199;-80
2022/08/26 02:11:15;;;;;;;1.23;0.60;;;22.90;99.90;;;;;;5085036;28;20168;-80
2022/08/26 02:13:45;;;;;;;0.73;0.60;;;22.90;99.90;;;;;;5092601;28;20219;-80
2022/08/26 02:16:13;;;;;;;0.37;0.37;;;22.90;99.90;;;;;;5094861;28;20176;-80
2022/08/26 02:18:42;;;;;;;0.70;0.50;;;22.90;99.90;;;;;;5086981;28;20208;-80
2022/08/26 02:21:09;;;;;;;2.00;0.90;;;22.90;99.90;;;;;;5088084;28;20180;-80
2022/08/26 02:23:35;;;;;;;0.40;0.40;;;22.90;99.90;;;;;;5086724;28;20181;-81
2022/08/26 02:26:13;;;;;;;1.13;0.50;;;22.90;99.90;;;;;;5091910;28;20204;-81
2022/08/26 02:28:58;;;;;;;2.50;0.73;;;22.80;99.90;;;;;;5090695;28;20208;-81
2022/08/26 02:31:24;;;;;;;1.20;0.70;;;22.90;99.90;;;;;;5082857;28;20230;-81
2022/08/26 02:33:49;;;;;;;0.57;0.40;;;22.90;99.90;;;;;;5084971;28;20282;-80
2022/08/26 02:36:23;;;;;;;0.90;0.67;;;22.90;99.90;;;;;;5110013;28;20172;-81
2022/08/26 02:38:49;;;;;;;0.80;0.80;;;22.90;99.90;;;;;;5098777;28;20200;-81
2022/08/26 02:41:15;;;;;;;0.83;0.80;;;22.90;99.90;;;;;;5102313;28;20275;-81
2022/08/26 02:43:40;;;;;;;1.73;1.10;;;22.90;99.90;;;;;;5095700;28;20626;-81
2022/08/26 02:46:06;;;;;;;0.70;0.70;;;22.90;99.90;;;;;;5087894;28;20212;-80
2022/08/26 02:48:31;;;;;;;0.40;0.40;;;22.80;99.90;;;;;;5086045;28;20262;-81
2022/08/26 02:50:59;;;;;;;0.50;0.50;;;22.80;99.90;;;;;;5090713;28;20192;-80
2022/08/26 02:53:25;;;;;;;0.70;0.70;;;22.70;99.90;;;;;;5086417;28;20238;-81
2022/08/26 02:55:50;;;;;;;1.87;1.73;;;22.70;99.90;;;;;;5094750;28;20172;-81
2022/08/26 02:58:16;;;;;;;3.47;1.20;;;22.70;99.90;;;;;;5086382;28;20201;-81
2022/08/26 03:00:41;;;;;;;1.47;0.90;;;22.70;99.90;;;;;;5086686;28;20215;-80
2022/08/26 03:03:07;;;;;;;1.07;0.70;;;22.60;99.90;;;;;;5085767;28;20189;-81
2022/08/26 03:05:33;;;;;;;0.90;0.90;;;22.60;99.90;;;;;;5087539;28;20180;-80
2022/08/26 03:07:59;;;;;;;1.63;1.00;;;22.50;99.90;;;;;;5091218;28;20210;-80
2022/08/26 03:10:25;;;;;;;1.00;0.80;;;22.40;99.90;;;;;;5091542;28;20176;-80
2022/08/26 03:12:51;;;;;;;2.43;1.00;;;22.30;99.90;;;;;;5084906;28;20187;-81
2022/08/26 03:15:17;;;;;;;0.83;0.80;;;22.20;99.90;;;;;;5097312;28;20646;-80
2022/08/26 03:17:45;;;;;;;1.10;1.00;;;22.10;99.90;;;;;;5093881;28;20204;-81
2022/08/26 03:20:11;;;;;;;0.87;0.87;;;22.10;99.90;;;;;;5088162;28;20234;-81
2022/08/26 03:22:37;;;;;;;1.27;0.77;;;22.10;99.90;;;;;;5080891;28;20595;-81
2022/08/26 03:25:05;;;;;;;0.67;0.67;;;22.20;99.90;;;;;;5087476;28;20275;-81
2022/08/26 03:27:31;;;;;;;1.40;1.13;;;22.20;99.90;;;;;;5092415;28;20296;-80
2022/08/26 03:33:02;;;;;;;1.60;1.47;;;22.20;99.90;;;;;;5044902;28;20216;-80
2022/08/26 03:35:28;;;;;;;2.93;2.07;;;22.20;99.90;;;;;;5045199;28;20775;-80
2022/08/26 03:37:54;;;;;;;1.77;1.50;;;22.20;99.90;;;;;;5043241;28;20277;-81
2022/08/26 03:40:20;;;;;;;0.83;0.83;;;22.20;99.90;;;;;;5087969;28;20266;-79
2022/08/26 03:42:46;;;;;;;1.73;1.13;;;22.20;99.90;;;;;;5086469;28;20181;-81
2022/08/26 03:45:14;;;;;;;0.93;0.70;;;22.30;99.90;;;;;;5091057;28;21111;-81
2022/08/26 03:47:39;;;;;;;1.70;1.40;;;22.30;99.90;;;;;;5084065;28;20255;-81
2022/08/26 03:50:08;;;;;;;1.20;0.70;;;22.30;99.90;;;;;;5083039;28;20197;-81
2022/08/26 03:52:34;;;;;;;2.00;1.07;;;22.20;99.90;;;;;;5084567;28;20663;-81
2022/08/26 03:54:59;;;;;;;0.50;0.50;;;22.20;99.90;;;;;;5086035;28;20208;-81
2022/08/26 03:57:25;;;;;;;0.90;0.90;;;22.30;99.90;;;;;;5088582;28;20214;-80
2022/08/26 03:59:50;;;;;;;0.83;0.83;;;22.30;99.90;;;;;;5090685;28;20594;-81
2022/08/26 04:02:16;;;;;;;0.47;0.47;;;22.30;99.90;;;;;;5092922;28;20179;-81
2022/08/26 04:04:42;;;;;;;0.83;0.80;;;22.30;99.90;;;;;;5088715;28;20188;-81
2022/08/26 04:07:07;;;;;;;1.37;1.10;;;22.30;99.90;;;;;;5086272;28;20274;-81
2022/08/26 04:09:33;;;;;;;0.60;0.60;;;22.30;99.90;;;;;;5087025;28;20192;-81
2022/08/26 04:11:58;;;;;;;1.00;0.67;;;22.20;99.90;;;;;;5079282;28;20185;-80
2022/08/26 04:14:26;;;;;;;1.90;0.80;;;22.30;99.90;;;;;;5087838;28;20215;-80
2022/08/26 04:16:53;;;;;;;1.00;1.00;;;22.20;99.90;;;;;;5091444;28;20176;-80
2022/08/26 04:19:20;;;;;;;0.80;0.80;;;22.20;99.90;;;;;;5081786;28;20208;-80
2022/08/26 04:21:47;;;;;;;0.73;0.73;;;22.10;99.90;;;;;;5086144;28;20184;-80
2022/08/26 04:24:14;;;;;;;1.07;0.93;;;22.30;99.90;;;;;;5085003;28;20215;-80
2022/08/26 04:26:41;;;;;;;0.53;0.53;;;22.30;99.90;;;;;;5085878;28;20223;-80
2022/08/26 04:29:13;;;;;;;1.40;1.30;;;22.30;99.90;;;;;;5090571;28;20204;-80
2022/08/26 04:31:39;;;;;;;0.90;0.87;;;22.30;99.90;;;;;;5081439;28;20189;-80
2022/08/26 04:34:05;;;;;;;0.73;0.73;;;22.30;99.90;;;;;;5093103;28;20650;-81
2022/08/26 04:36:30;;;;;;;2.30;0.87;;;22.30;99.90;;;;;;5088545;28;20244;-81
2022/08/26 04:38:59;;;;;;;1.70;1.23;;;22.20;99.90;;;;;;5086250;28;20701;-81
2022/08/26 04:41:24;;;;;;;0.60;0.60;;;22.20;99.90;;;;;;5083750;28;20207;-80
2022/08/26 04:43:50;;;;;;;0.57;0.57;;;22.20;99.90;;;;;;5080123;28;20209;-81
2022/08/26 04:46:21;;;;;;;0.83;0.60;;;22.20;99.90;;;;;;5080535;28;20180;-81
2022/08/26 04:48:47;;;;;;;0.70;0.70;;;22.20;99.90;;;;;;5091852;28;20243;-80
2022/08/26 04:51:13;;;;;;;1.30;1.20;;;22.30;99.90;;;;;;5082287;28;20217;-81
2022/08/26 04:53:39;;;;;;;0.67;0.67;;;22.30;99.90;;;;;;5078489;28;20234;-81
2022/08/26 04:56:04;;;;;;;0.80;0.80;;;22.40;99.90;;;;;;5084356;28;20203;-81
2022/08/26 04:58:31;;;;;;;0.57;0.57;;;22.40;99.90;;;;;;5085702;28;20691;-80
2022/08/26 05:00:57;;;;;;;0.73;0.70;;;22.50;99.90;;;;;;5081790;28;20177;-81
2022/08/26 05:03:24;;;;;;;0.73;0.73;;;22.60;99.90;;;;;;5083835;28;20203;-80
2022/08/26 05:05:50;;;;;;;0.83;0.80;;;22.70;99.90;;;;;;5080623;28;20731;-80
2022/08/26 05:08:17;;;;;;;1.17;0.93;;;22.70;99.90;;;;;;5090205;28;20242;-81
2022/08/26 05:10:51;;;;;;;0.63;0.40;;;22.80;99.90;;;;;;5087238;28;20193;-81
2022/08/26 05:13:19;;;;;;;0.83;0.83;;;22.90;99.90;;;;;;5091308;28;20264;-82
2022/08/26 05:15:46;;;;;;;0.70;0.70;;;22.90;99.90;;;;;;5087067;28;20177;-81
2022/08/26 05:18:12;;;;;;;2.60;0.90;;;22.90;99.90;;;;;;5094903;28;20208;-82
2022/08/26 05:20:44;;;;;;;1.80;0.77;;;22.80;99.90;;;;;;5089395;28;20184;-81
2022/08/26 05:23:10;;;;;;;0.90;0.90;;;22.80;99.90;;;;;;5088820;28;20538;-81
2022/08/26 05:25:39;;;;;;;1.30;0.90;;;22.70;99.90;;;;;;5085061;28;20195;-80
2022/08/26 05:28:05;;;;;;;0.77;0.77;;;22.60;99.90;;;;;;5092279;28;20211;-80
2022/08/26 05:30:30;;;;;;;1.10;1.10;;;22.60;99.90;;;;;;5093528;28;20277;-81
2022/08/26 05:32:56;;;;;;;0.80;0.80;;;22.60;99.90;;;;;;5092645;28;20172;-81
2022/08/26 05:35:22;;;;;;;0.80;0.80;;;22.50;99.90;;;;;;5095137;28;20188;-81
2022/08/26 05:37:48;;;;;;;2.00;1.60;;;22.60;99.90;;;;;;5084945;28;20212;-81
2022/08/26 05:40:14;;;;;;;1.53;0.97;;;22.50;99.90;;;;;;5089144;28;20187;-81
2022/08/26 05:42:40;;;;;;;1.60;1.17;;;22.50;99.90;;;;;;5084987;28;20229;-80
2022/08/26 05:45:07;;;;;;;1.13;1.03;;;22.60;99.90;;;;;;5101516;28;20183;-80
2022/08/26 05:47:33;;;;;;;0.83;0.80;;;22.60;99.90;;;;;;5086446;28;20204;-81
2022/08/26 05:49:59;;;;;;;1.30;1.20;;;22.70;99.90;;;;;;5081780;28;20640;-81
2022/08/26 05:52:25;;;;;;;0.83;0.83;;;22.70;99.90;;;;;;5090825;28;20206;-81
2022/08/26 05:54:51;;;;;;;0.80;0.80;;;22.70;99.90;;;;;;5090831;28;20681;-81
2022/08/26 05:57:16;;;;;;;0.90;0.90;;;22.70;99.90;;;;;;5090462;28;20575;-81
2022/08/26 05:59:42;;;;;;;1.20;1.10;;;22.80;99.90;;;;;;5088471;28;20263;-81
2022/08/26 06:02:08;;;;;;;1.47;1.47;;;22.90;99.90;;;;;;5091810;28;20531;-81
2022/08/26 06:04:34;;;;;;;1.50;1.27;;;22.90;99.90;;;;;;5082846;28;20565;-82
2022/08/26 06:06:59;;;;;;;1.13;1.13;;;23.00;99.90;;;;;;5089247;28;20189;-81
2022/08/26 06:09:26;;;;;;;1.10;1.00;;;23.20;99.90;;;;;;5092017;28;20188;-82
2022/08/26 06:11:53;;;;;;;1.40;0.80;;;23.30;99.90;;;;;;5084758;28;20212;-81
2022/08/26 06:14:18;;;;;;;3.90;2.00;;;23.40;99.90;;;;;;5093340;28;20657;-81
2022/08/26 06:16:44;;;;;;;2.23;2.03;;;23.60;99.90;;;;;;5086306;28;20268;-81
2022/08/26 06:19:13;;;;;;;3.13;1.23;;;23.30;99.90;;;;;;5097421;28;20205;-81
2022/08/26 06:21:41;;;;;;;0.87;0.80;;;23.40;99.90;;;;;;5096956;28;20570;-81
2022/08/26 06:26:55;;;;;;;1.20;1.10;;;23.70;99.90;;;;;;5088567;28;20195;-81
2022/08/26 06:29:24;;;;;;;1.27;1.17;;;24.00;99.90;;;;;;5092042;28;20507;-81
2022/08/26 06:31:49;;;;;;;2.20;1.53;;;24.00;99.90;;;;;;5091565;28;20265;-81
2022/08/26 06:34:16;;;;;;;1.00;1.00;;;23.90;99.90;;;;;;5100545;28;20204;-81
2022/08/26 06:36:43;;;;;;;2.20;1.20;;;24.20;99.90;;;;;;5089570;28;20237;-81
2022/08/26 06:39:11;;;;;;;0.93;0.80;;;24.20;99.90;;;;;;5095111;28;20611;-81
2022/08/26 06:41:38;;;;;;;2.63;1.20;;;24.10;99.90;;;;;;5102049;28;20228;-81
2022/08/26 06:44:05;;;;;;;1.87;1.03;;;24.30;99.90;;;;;;5088910;28;20900;-81
2022/08/26 06:46:31;;;;;;;0.83;0.83;;;24.20;99.90;;;;;;5091124;28;20657;-81
2022/08/26 06:48:59;;;;;;;1.30;1.20;;;24.30;99.90;;;;;;5081289;28;20221;-81
2022/08/26 06:51:31;;;;;;;0.87;0.87;;;24.40;99.90;;;;;;5100425;28;20176;-81
2022/08/26 06:53:59;;;;;;;1.20;1.17;;;24.60;99.90;;;;;;5094614;28;20211;-80
2022/08/26 06:56:28;;;;;;;1.47;1.00;;;24.60;99.90;;;;;;5091865;28;20183;-80
2022/08/26 06:58:53;;;;;;;1.13;1.03;;;24.60;99.90;;;;;;5088261;28;20659;-81
2022/08/26 07:01:23;;;;;;;1.87;1.43;;;24.70;99.90;;;;;;5086146;28;20255;-80
2022/08/26 07:03:51;;;;;;;1.67;1.57;;;24.80;99.90;;;;;;5092151;28;20184;-81
2022/08/26 07:06:18;;;;;;;1.30;1.20;;;24.80;99.90;;;;;;5092726;28;20185;-80
2022/08/26 07:08:44;;;;;;;1.00;1.00;;;24.50;99.90;;;;;;5094540;28;20204;-81
2022/08/26 07:11:12;;;;;;;1.03;0.93;;;24.50;99.90;;;;;;5079377;28;20189;-81
2022/08/26 07:13:38;;;;;;;0.83;0.83;;;24.90;99.90;;;;;;5088401;28;20204;-80
2022/08/26 07:16:08;;;;;;;3.37;1.43;;;25.20;99.90;;;;;;5090397;28;20172;-80
2022/08/26 07:18:35;;;;;;;1.63;1.23;;;25.40;99.90;;;;;;5082583;28;20212;-80
2022/08/26 07:21:03;;;;;;;0.93;0.93;;;25.40;99.90;;;;;;5084185;28;20188;-80
2022/08/26 07:23:29;;;;;;;1.60;1.50;;;25.60;99.90;;;;;;5086354;28;20192;-81
2022/08/26 07:25:54;;;;;;;2.23;2.10;;;25.50;99.90;;;;;;5085311;28;20185;-81
2022/08/26 07:28:21;;;;;;;1.57;1.47;;;25.50;99.90;;;;;;5089765;28;20208;-81
2022/08/26 07:30:46;;;;;;;1.57;1.47;;;25.70;99.90;;;;;;5084186;28;20193;-80
2022/08/26 07:33:12;;;;;;;1.80;1.70;;;25.60;99.90;;;;;;5091523;28;20199;-80
2022/08/26 07:35:38;;;;;;;1.30;1.17;;;25.30;99.90;;;;;;5092305;28;20354;-81
2022/08/26 07:38:03;;;;;;;1.63;1.33;;;25.30;99.90;;;;;;5083677;28;20232;-80
2022/08/26 07:40:29;;;;;;;1.37;1.27;;;25.30;99.90;;;;;;5083699;28;20193;-80
2022/08/26 07:42:54;;;;;;;3.23;2.20;;;25.60;99.90;;;;;;5079022;28;20224;-80
2022/08/26 07:45:20;;;;;;;1.50;1.40;;;25.60;99.90;;;;;;5095941;28;20188;-80
2022/08/26 07:47:46;;;;;;;1.97;1.77;;;25.60;99.90;;;;;;5086331;28;20204;-80
2022/08/26 07:50:12;;;;;;;1.67;1.57;;;25.50;99.90;;;;;;5084035;28;20196;-80
2022/08/26 07:52:38;;;;;;;4.10;1.97;;;25.70;99.90;;;;;;5084936;28;20706;-80
2022/08/26 07:55:06;;;;;;;1.67;1.57;;;25.90;99.90;;;;;;5088479;28;20250;-80
2022/08/26 07:57:33;;;;;;;1.73;1.63;;;26.00;99.90;;;;;;5096866;28;20203;-80
2022/08/26 07:59:59;;;;;;;1.17;1.17;;;25.90;99.90;;;;;;5079576;28;20173;-80
2022/08/26 08:02:27;;;;;;;1.73;1.53;;;25.80;99.90;;;;;;5090615;28;20268;-80
2022/08/26 08:04:53;;;;;;;4.50;2.57;;;25.80;99.90;;;;;;5086845;28;20234;-80
2022/08/26 08:07:19;;;;;;;2.30;2.13;;;25.40;99.90;;;;;;5093811;28;20214;-81
2022/08/26 08:09:48;;;;;;;2.60;1.70;;;25.40;99.90;;;;;;5087682;28;20181;-80
2022/08/26 08:12:14;;;;;;;2.03;1.90;;;25.70;99.90;;;;;;5074738;28;20273;-81
2022/08/26 08:14:43;;;;;;;1.93;1.73;;;25.80;99.90;;;;;;5083138;28;20301;-81
2022/08/26 08:17:10;;;;;;;2.33;1.50;;;25.90;99.90;;;;;;5087757;28;20181;-80
2022/08/26 08:19:35;;;;;;;2.83;2.00;;;25.90;99.90;;;;;;5082430;28;20184;-80
2022/08/26 08:22:03;;;;;;;1.57;1.43;;;25.90;99.90;;;;;;5085500;28;20184;-80
2022/08/26 08:24:32;;;;;;;3.23;1.63;;;26.10;99.90;;;;;;5088443;28;20769;-80
2022/08/26 08:27:02;;;;;;;3.27;2.03;;;26.40;99.90;;;;;;5084012;28;20196;-81
2022/08/26 08:29:31;;;;;;;3.23;2.10;;;26.30;99.90;;;;;;5077351;28;20722;-81
2022/08/26 08:31:58;;;;;;;2.00;1.90;;;26.30;99.90;;;;;;5081009;28;20202;-81
2022/08/26 08:34:26;;;;;;;3.97;3.00;;;26.60;99.90;;;;;;5081019;28;20243;-80
2022/08/26 08:36:51;;;;;;;3.03;2.10;;;26.40;99.90;;;;;;5082871;28;20725;-80
2022/08/26 08:39:17;;;;;;;2.60;1.63;;;26.90;99.90;;;;;;5093105;28;20235;-80
2022/08/26 08:41:51;;;;;;;3.67;3.37;;;27.10;99.90;;;;;;5099902;28;20255;-81
2022/08/26 08:44:19;;;;;;;3.27;2.37;;;26.80;99.90;;;;;;5081701;28;20184;-80
2022/08/26 08:46:49;;;;;;;5.27;1.87;;;27.30;99.90;;;;;;5081642;28;20216;-80
2022/08/26 08:49:15;;;;;;;2.33;2.13;;;27.70;99.90;;;;;;5094180;28;20227;-80
2022/08/26 08:52:05;;;;;;;2.80;2.33;;;27.60;99.90;;;;;;5098739;28;20199;-80
2022/08/26 08:54:32;;;;;;;4.00;2.63;;;27.60;99.90;;;;;;5090216;28;20204;-80
2022/08/26 08:57:06;;;;;;;3.20;3.00;;;27.40;99.90;;;;;;5095213;28;20614;-80
2022/08/26 08:59:34;;;;;;;1.87;1.77;;;27.30;99.90;;;;;;5087019;28;20196;-81
2022/08/26 09:02:32;;;;;;;3.67;2.50;;;27.80;99.90;;;;;;5079832;28;20207;-80
2022/08/26 09:04:58;;;;;;;2.53;2.07;;;27.90;99.90;;;;;;5074574;28;20250;-80
2022/08/26 09:07:54;;;;;;;2.58;2.38;;;28.20;99.90;;;;;;5084669;28;20207;-80
2022/08/26 09:10:31;;;;;;;2.78;1.90;;;28.40;99.90;;;;;;5083744;28;20332;-80
2022/08/26 09:12:58;;;;;;;8.60;3.50;;;28.30;99.90;;;;;;5083213;28;20278;-80
2022/08/26 09:15:30;;;;;;;2.22;1.98;;;28.40;99.90;;;;;;5090520;28;20208;-80
2022/08/26 09:18:17;;;;;;;3.03;2.77;;;28.60;99.90;;;;;;5080879;28;20200;-80
2022/08/26 09:20:54;;;;;;;3.28;2.58;;;28.30;99.90;;;;;;5075739;28;20677;-80
2022/08/26 09:23:19;;;;;;;3.58;2.80;;;28.30;99.90;;;;;;5080028;28;20193;-80
2022/08/26 09:26:13;;;;;;;3.08;2.45;;;28.10;99.90;;;;;;5084214;28;20720;-81
2022/08/26 09:28:43;;;;;;;2.38;1.83;;;27.80;99.90;;;;;;5068601;28;20692;-80
2022/08/26 09:31:13;;;;;;;3.70;2.53;;;27.80;99.90;;;;;;5084538;28;20181;-80
2022/08/26 09:33:39;;;;;;;4.47;2.25;;;27.80;99.90;;;;;;5076175;28;20744;-80
2022/08/26 09:36:17;;;;;;;3.30;2.75;;;28.00;99.90;;;;;;5083646;28;20657;-80
2022/08/26 09:38:43;;;;;;;3.23;1.93;;;27.60;99.90;;;;;;5083220;28;20223;-81
2022/08/26 09:41:38;;;;;;;2.63;2.43;;;27.60;99.90;;;;;;5082187;28;20186;-80
2022/08/26 09:44:15;;;;;;;2.40;2.20;;;27.40;99.90;;;;;;5070396;28;20200;-80
2022/08/26 09:47:01;;;;;;;4.10;3.03;;;27.80;99.90;;;;;;5083779;28;20266;-81
2022/08/26 09:49:34;;;;;;;3.17;2.17;;;28.30;99.90;;;;;;5076502;28;20196;-81
2022/08/26 09:52:12;;;;;;;3.25;2.83;;;28.60;99.90;;;;;;5084964;28;20181;-81
2022/08/26 09:54:39;;;;;;;2.45;2.05;;;28.10;99.90;;;;;;5079055;28;21680;-81
2022/08/26 09:57:25;;;;;;;2.30;2.10;;;28.10;99.90;;;;;;5078149;28;20181;-81
2022/08/26 09:59:51;;;;;;;4.13;2.70;;;28.10;99.90;;;;;;5075746;28;20188;-81
2022/08/26 10:02:32;;;;;;;2.55;2.35;;;28.30;99.90;;;;;;5071684;28;20206;-81
2022/08/26 10:05:00;;;;;;;2.70;2.50;;;28.70;99.90;;;;;;5076503;28;20192;-81
2022/08/26 10:07:46;;;;;;;1.73;1.60;;;29.00;99.90;;;;;;5075927;28;20235;-81
2022/08/26 10:10:21;;;;;;;4.05;2.58;;;29.00;99.90;;;;;;5081641;28;20189;-78
2022/08/26 10:13:07;;;;;;;1.35;1.25;;;29.30;99.90;;;;;;5087593;28;20206;-80
2022/08/26 10:15:49;;;;;;;3.20;2.90;;;29.70;99.90;;;;;;5079011;28;20244;-80
2022/08/26 10:18:20;;;;;;;2.95;2.13;;;29.90;99.90;;;;;;5086624;28;20209;-79
2022/08/26 10:20:57;;;;;;;2.47;2.35;;;30.10;99.90;;;;;;5085170;28;20657;-79
2022/08/26 10:23:26;;;;;;;2.65;2.10;;;30.10;99.90;;;;;;5088280;28;20657;-80
2022/08/26 10:26:01;;;;;;;4.50;2.00;;;30.50;99.90;;;;;;5080498;28;20185;-80
2022/08/26 10:28:34;;;;;;;2.17;1.85;;;30.40;99.90;;;;;;5085728;28;20208;-80
2022/08/26 10:31:25;;;;;;;1.40;1.27;;;30.70;99.90;;;;;;5086089;28;20181;-79
2022/08/26 10:33:51;;;;;;;3.35;2.10;;;31.30;99.90;;;;;;5093900;28;20264;-79
2022/08/26 10:39:08;;;;;;;2.50;2.17;;;31.90;99.90;;;;;;5084937;28;20207;-80
2022/08/26 10:41:40;;;;;;;3.03;2.25;;;31.60;99.90;;;;;;5090746;28;20230;-80
2022/08/26 10:44:09;;;;;;;2.10;1.90;;;31.60;99.90;;;;;;5101928;28;20185;-81
2022/08/26 10:46:43;;;;;;;1.65;1.55;;;31.40;99.90;;;;;;5089780;28;20237;-81
2022/08/26 10:49:12;;;;;;;2.40;2.20;;;31.90;99.90;;;;;;5084137;28;20221;-80
2022/08/26 10:51:48;;;;;;;2.50;2.30;;;31.10;99.90;;;;;;5094363;28;20191;-80
2022/08/26 10:54:30;;;;;;;5.35;2.35;;;30.80;99.90;;;;;;5092986;28;20203;-81
2022/08/26 10:57:26;;;;;;;3.15;2.58;;;30.70;99.90;;;;;;5085562;28;20177;-80
2022/08/26 11:03:28;;;;;;;4.93;2.58;;;31.10;99.90;;;;;;5081452;28;20261;-82
2022/08/26 11:06:18;;;;;;;4.55;2.15;;;31.20;99.90;;;;;;5079287;28;20188;-81
2022/08/26 11:09:05;;;;;;;2.85;2.65;;;31.00;99.90;;;;;;5088983;28;20203;-81
2022/08/26 11:11:44;;;;;;;3.03;2.10;;;30.00;99.90;;;;;;5082483;28;20258;-81
2022/08/26 11:14:18;;;;;;;2.78;2.53;;;30.20;99.90;;;;;;5100342;28;20203;-81
2022/08/26 11:16:52;;;;;;;2.60;2.40;;;31.00;99.90;;;;;;5083637;28;20849;-81
2022/08/26 11:19:39;;;;;;;4.30;2.83;;;30.60;99.90;;;;;;5093649;28;20201;-80
2022/08/26 11:22:34;;;;;;;7.43;2.80;;;31.70;99.90;;;;;;5070471;28;20189;-81
2022/08/26 11:25:09;;;;;;;3.80;3.25;;;31.90;99.90;;;;;;5092046;28;20176;-80
2022/08/26 11:27:35;;;;;;;3.15;2.40;;;31.40;99.90;;;;;;5090490;28;20233;-80
2022/08/26 11:30:11;;;;;;;4.18;3.42;;;32.00;99.90;;;;;;5096900;28;20246;-80
2022/08/26 11:32:40;;;;;;;3.50;2.78;;;32.80;99.90;;;;;;5087588;28;20188;-80
2022/08/26 11:35:10;;;;;;;2.92;2.53;;;33.10;99.90;;;;;;5088983;28;20208;-80
2022/08/26 11:37:57;;;;;;;4.00;2.80;;;33.60;99.90;;;;;;5080402;28;20193;-80
2022/08/26 11:40:32;;;;;;;3.10;2.80;;;33.40;99.90;;;;;;5084373;28;20181;-81
2022/08/26 11:43:04;;;;;;;3.42;3.13;;;33.70;99.90;;;;;;5085431;28;20172;-80
2022/08/26 11:45:39;;;;;;;3.00;2.80;;;34.10;99.90;;;;;;5081586;27;20189;-80
2022/08/26 11:48:39;;;;;;;3.42;2.15;;;33.70;99.90;;;;;;5092250;28;20231;-80
2022/08/26 11:51:12;;;;;;;4.38;3.97;;;34.10;99.90;;;;;;5082802;28;20187;-81
2022/08/26 11:53:40;;;;;;;4.68;3.63;;;32.40;99.90;;;;;;5081483;28;20213;-81
2022/08/26 11:56:25;;;;;;;7.47;4.20;;;31.70;99.90;;;;;;5082447;28;20215;-81
2022/08/26 11:58:55;;;;;;;4.63;3.67;;;30.90;99.90;;;;;;5083409;28;20215;-80
2022/08/26 12:01:29;;;;;;;2.70;2.50;;;31.10;99.90;;;;;;5084315;28;20236;-80
2022/08/26 12:03:56;;;;;;;3.08;2.83;;;32.00;99.90;;;;;;5080987;28;20248;-81
2022/08/26 12:06:29;;;;;;;5.05;3.08;;;32.40;99.90;;;;;;5087670;28;20187;-81
2022/08/26 12:09:05;;;;;;;3.90;3.17;;;32.30;99.90;;;;;;5085628;28;20216;-81
2022/08/26 12:11:34;;;;;;;3.70;2.67;;;32.50;99.90;;;;;;5078624;28;20184;-80
2022/08/26 12:14:06;;;;;;;2.70;2.40;;;32.10;99.90;;;;;;5090082;28;20200;-81
2022/08/26 12:16:40;;;;;;;2.85;2.65;;;32.00;99.90;;;;;;5080239;28;20223;-80
2022/08/26 12:19:31;;;;;;;3.90;3.10;;;31.90;99.90;;;;;;5084535;28;20200;-81
2022/08/26 12:22:15;;;;;;;2.95;2.65;;;31.50;99.90;;;;;;5084389;28;20267;-81
2022/08/26 12:25:03;;;;;;;5.20;2.75;;;31.30;99.90;;;;;;5081505;28;20169;-81
2022/08/26 12:27:36;;;;;;;2.50;2.30;;;31.30;99.90;;;;;;5082986;28;20209;-81
2022/08/26 12:30:12;;;;;;;3.85;2.60;;;31.10;99.90;;;;;;5090760;28;20246;-81
2022/08/26 12:32:42;;;;;;;4.28;3.55;;;30.90;99.90;;;;;;5079140;28;20211;-80
2022/08/26 12:35:15;;;;;;;4.43;3.53;;;30.90;99.90;;;;;;5087372;28;20231;-81
2022/08/26 12:37:44;;;;;;;4.95;3.15;;;30.60;99.90;;;;;;5079734;28;20569;-80
2022/08/26 12:40:34;;;;;;;6.30;3.35;;;30.60;99.90;;;;;;5083304;28;20720;-80
2022/08/26 12:43:04;;;;;;;4.75;3.45;;;30.50;99.90;;;;;;5082436;28;20188;-80
2022/08/26 12:45:54;;;;;;;2.58;2.17;;;30.30;99.90;;;;;;5081547;28;20205;-82
2022/08/26 12:48:47;;;;;;;2.40;2.20;;;29.90;99.90;;;;;;5069783;28;20337;-82
2022/08/26 12:51:24;;;;;;;4.45;3.00;;;28.30;99.90;;;;;;5091045;28;20198;-82
2022/08/26 12:53:50;;;;;;;5.10;3.28;;;28.20;99.90;;;;;;5080654;28;20707;-81
2022/08/26 12:56:39;;;;;;;3.45;3.15;;;28.10;99.90;;;;;;5091362;28;20673;-81
2022/08/26 12:59:23;;;;;;;3.63;2.85;;;27.60;99.90;;;;;;5067716;28;20565;-81
2022/08/26 13:01:49;;;;;;;5.53;2.65;;;27.50;99.90;;;;;;5087187;28;20832;-81
2022/08/26 13:04:36;;;;;;;2.45;2.25;;;27.60;99.90;;;;;;5081430;28;20284;-81
2022/08/26 13:07:23;;;;;;;2.47;2.28;;;27.70;99.90;;;;;;5089603;28;20176;-81
2022/08/26 13:09:51;;;;;;;5.22;3.10;;;27.90;99.90;;;;;;5082869;28;20265;-81
2022/08/26 13:12:30;;;;;;;3.58;2.05;;;27.90;99.90;;;;;;5087390;28;20270;-81
2022/08/26 13:14:57;;;;;;;5.15;3.20;;;28.00;99.90;;;;;;5083229;28;20316;-83
2022/08/26 13:17:24;;;;;;;3.10;2.85;;;28.10;99.90;;;;;;5088122;28;20204;-81